createdAt,value
2022-11-21T15:22:13.009Z,2.75
2022-11-21T15:23:12.930Z,2.75
2022-11-21T15:24:12.898Z,2.75
2022-11-21T15:25:12.854Z,2.79
2022-11-21T15:26:12.785Z,2.73
2022-11-21T15:27:12.726Z,2.79
2022-11-21T15:28:12.677Z,2.76
2022-11-21T15:29:12.619Z,2.78
2022-11-21T15:30:12.581Z,2.76
2022-11-21T15:31:12.511Z,2.72
2022-11-21T15:32:16.088Z,2.73
2022-11-21T15:33:12.400Z,2.75
2022-11-21T15:34:34.327Z,2.75
2022-11-21T15:35:13.321Z,2.66
2022-11-21T15:36:12.230Z,2.76
2022-11-21T15:37:12.162Z,2.71
2022-11-21T15:38:12.112Z,2.76
2022-11-21T15:39:12.050Z,2.73
2022-11-21T15:40:12.003Z,2.72
2022-11-21T15:41:11.920Z,2.71
2022-11-21T15:42:11.869Z,2.72
2022-11-21T15:43:11.803Z,2.63
2022-11-21T15:44:11.739Z,2.65
2022-11-21T15:45:15.313Z,2.58
2022-11-21T15:46:12.625Z,2.63
2022-11-21T15:47:11.543Z,2.68
2022-11-21T15:48:11.491Z,2.65
2022-11-21T15:50:12.364Z,2.66
2022-11-21T15:51:11.302Z,2.63
2022-11-21T15:52:11.233Z,2.68
2022-11-21T15:53:11.169Z,2.68
2022-11-21T15:54:11.125Z,2.71
2022-11-21T15:55:11.052Z,2.58
2022-11-21T15:56:11.022Z,2.55
2022-11-21T15:57:11.178Z,2.60
2022-11-21T15:57:13.502Z,2.63
2022-11-21T15:58:13.222Z,2.58
2022-11-21T15:59:11.794Z,2.53
2022-11-21T16:00:10.732Z,2.51
2022-11-21T16:01:10.695Z,2.53
2022-11-21T16:02:10.598Z,2.43
2022-11-21T16:03:10.532Z,2.53
2022-11-21T16:04:10.474Z,2.53
2022-11-21T16:05:10.399Z,2.50
2022-11-21T16:06:10.347Z,2.57
2022-11-21T16:07:10.394Z,2.47
2022-11-21T16:08:10.216Z,2.51
2022-11-21T16:09:10.146Z,2.50
2022-11-21T16:10:16.555Z,2.48
2022-11-21T16:11:11.014Z,2.40
2022-11-21T16:12:09.943Z,2.50
2022-11-21T16:13:09.883Z,2.47
2022-11-21T16:14:09.796Z,2.47
2022-11-21T16:15:09.738Z,2.45
2022-11-21T16:16:09.661Z,2.47
2022-11-21T16:17:09.608Z,2.43
2022-11-21T16:18:09.562Z,2.37
2022-11-21T16:19:09.450Z,2.40
2022-11-21T16:20:09.399Z,2.43
2022-11-21T16:21:09.319Z,2.42
2022-11-21T16:22:09.280Z,2.40
2022-11-21T16:23:09.211Z,2.42
2022-11-21T16:24:09.123Z,2.42
2022-11-21T16:25:09.069Z,2.42
2022-11-21T16:26:09.011Z,2.43
2022-11-21T16:27:08.991Z,2.47
2022-11-21T16:28:08.860Z,2.40
2022-11-21T16:29:08.805Z,2.43
2022-11-21T16:30:08.720Z,2.43
2022-11-21T16:31:08.661Z,2.43
2022-11-21T16:32:08.590Z,2.43
2022-11-21T16:33:08.520Z,2.48
2022-11-21T16:34:08.522Z,2.43
2022-11-21T16:35:08.397Z,2.48
2022-11-21T16:36:08.332Z,2.42
2022-11-21T16:37:08.267Z,2.36
2022-11-21T16:38:08.213Z,2.37
2022-11-21T16:39:13.611Z,2.36
2022-11-21T16:40:09.069Z,2.45
2022-11-21T16:41:07.984Z,2.42
2022-11-21T16:42:07.914Z,2.36
2022-11-21T16:43:07.847Z,2.40
2022-11-21T16:44:07.793Z,2.40
2022-11-21T16:45:07.723Z,2.39
2022-11-21T16:46:07.653Z,2.39
2022-11-21T16:47:08.703Z,2.39
2022-11-21T16:48:07.533Z,2.37
2022-11-21T16:49:07.432Z,2.35
2022-11-21T16:50:07.364Z,2.36
2022-11-21T16:51:07.285Z,2.36
2022-11-21T16:52:07.227Z,2.32
2022-11-21T16:53:07.156Z,2.29
2022-11-21T16:54:09.111Z,2.28
2022-11-21T16:55:07.041Z,2.18
2022-11-21T16:56:06.958Z,2.15
2022-11-21T16:57:06.900Z,2.10
2022-11-21T16:58:06.805Z,2.03
2022-11-21T16:59:06.736Z,2.01
2022-11-21T17:00:06.666Z,1.99
2022-11-21T17:01:06.683Z,1.95
2022-11-21T17:02:06.583Z,1.89
2022-11-21T17:03:06.494Z,1.91
2022-11-21T17:04:06.413Z,1.92
2022-11-21T17:05:06.357Z,1.92
2022-11-21T17:06:06.296Z,1.91
2022-11-21T17:07:06.277Z,1.87
2022-11-21T17:08:06.164Z,1.84
2022-11-21T17:09:06.109Z,1.85
2022-11-21T17:10:06.045Z,1.85
2022-11-21T17:11:05.978Z,1.81
2022-11-21T17:12:05.937Z,1.75
2022-11-21T17:13:05.855Z,1.73
2022-11-21T17:14:05.782Z,1.67
2022-11-21T17:15:05.739Z,1.66
2022-11-21T17:16:05.663Z,1.67
2022-11-21T17:17:05.620Z,1.56
2022-11-21T17:18:05.575Z,1.55
2022-11-21T17:19:05.505Z,1.56
2022-11-21T17:20:05.429Z,1.55
2022-11-21T17:21:05.385Z,1.52
2022-11-21T17:22:05.303Z,1.52
2022-11-21T17:23:05.250Z,1.49
2022-11-21T17:24:05.206Z,1.45
2022-11-21T17:25:05.130Z,1.44
2022-11-21T17:26:05.080Z,1.49
2022-11-21T17:27:05.020Z,1.49
2022-11-21T17:28:04.971Z,1.52
2022-11-21T17:29:04.917Z,1.52
2022-11-21T17:30:04.842Z,1.49
2022-11-21T17:31:04.792Z,1.46
2022-11-21T17:32:04.729Z,1.48
2022-11-21T17:33:04.674Z,1.48
2022-11-21T17:34:04.636Z,1.48
2022-11-21T17:35:04.543Z,1.56
2022-11-21T17:36:04.462Z,1.52
2022-11-21T17:37:04.403Z,1.56
2022-11-21T17:38:04.342Z,1.59
2022-11-21T17:39:04.295Z,1.56
2022-11-21T17:40:04.230Z,1.59
2022-11-21T17:41:04.190Z,1.59
2022-11-21T17:42:04.112Z,1.59
2022-11-21T17:43:04.086Z,1.60
2022-11-21T17:44:04.005Z,1.59
2022-11-21T17:45:03.943Z,1.62
2022-11-21T17:46:09.057Z,1.60
2022-11-21T17:47:04.834Z,1.59
2022-11-21T17:48:03.764Z,1.57
2022-11-21T17:49:03.705Z,1.55
2022-11-21T17:50:06.189Z,1.57
2022-11-21T17:51:03.604Z,1.53
2022-11-21T17:52:03.549Z,1.53
2022-11-21T17:53:03.500Z,1.53
2022-11-21T17:54:03.415Z,1.56
2022-11-21T17:55:03.372Z,1.46
2022-11-21T17:56:03.315Z,1.53
2022-11-21T17:57:03.257Z,1.44
2022-11-21T17:58:03.200Z,1.41
2022-11-21T17:59:03.133Z,1.41
2022-11-21T18:00:03.117Z,1.44
2022-11-21T18:01:03.125Z,1.45
2022-11-21T18:02:03.138Z,1.48
2022-11-21T18:03:02.890Z,1.49
2022-11-21T18:04:02.811Z,1.42
2022-11-21T18:05:02.779Z,1.48
2022-11-21T18:06:02.688Z,1.52
2022-11-21T18:07:02.666Z,1.48
2022-11-21T18:08:02.569Z,1.53
2022-11-21T18:09:02.528Z,1.48
2022-11-21T18:10:27.333Z,1.49
2022-11-21T18:11:03.378Z,1.49
2022-11-21T18:12:02.322Z,1.59
2022-11-21T18:13:02.254Z,1.49
2022-11-21T18:14:02.181Z,1.49
2022-11-21T18:15:02.131Z,1.46
2022-11-21T18:16:02.068Z,1.48
2022-11-21T18:17:02.012Z,1.42
2022-11-21T18:18:01.944Z,1.44
2022-11-21T18:19:01.890Z,1.44
2022-11-21T18:20:01.840Z,1.46
2022-11-21T18:21:01.780Z,1.45
2022-11-21T18:22:01.711Z,1.41
2022-11-21T18:23:01.650Z,1.44
2022-11-21T18:24:01.593Z,1.45
2022-11-21T18:25:01.560Z,1.42
2022-11-21T18:26:01.481Z,1.44
2022-11-21T18:27:01.451Z,1.42
2022-11-21T18:28:01.342Z,1.45
2022-11-21T18:29:34.154Z,1.46
2022-11-21T18:30:02.251Z,1.48
2022-11-21T18:31:01.524Z,1.48
2022-11-21T18:32:01.122Z,1.52
2022-11-21T18:33:01.052Z,1.53
2022-11-21T18:34:01.003Z,1.48
2022-11-21T18:35:00.957Z,1.52
2022-11-21T18:36:00.874Z,1.56
2022-11-21T18:37:00.845Z,1.56
2022-11-21T18:38:00.763Z,1.53
2022-11-21T18:39:07.151Z,1.55
2022-11-21T18:40:01.633Z,1.49
2022-11-21T18:41:00.595Z,1.53
2022-11-21T18:42:00.534Z,1.55
2022-11-21T18:43:00.454Z,1.44
2022-11-21T18:44:00.403Z,1.46
2022-11-21T18:45:00.649Z,1.38
2022-11-21T18:46:00.288Z,1.34
2022-11-21T18:47:00.230Z,1.34
2022-11-21T18:48:00.412Z,1.23
2022-11-21T18:49:04.593Z,1.17
2022-11-21T18:50:01.055Z,1.16
2022-11-21T18:51:00.052Z,1.12
2022-11-21T18:51:59.936Z,1.06
2022-11-21T18:52:59.906Z,1.06
2022-11-21T18:53:59.827Z,0.98
2022-11-21T18:54:59.768Z,0.96
2022-11-21T18:55:59.718Z,0.85
2022-11-21T18:56:59.647Z,0.81
2022-11-21T18:57:59.619Z,0.74
2022-11-21T18:58:59.675Z,0.73
2022-11-21T18:59:59.485Z,0.69
2022-11-21T19:00:59.541Z,0.72
2022-11-21T19:01:59.482Z,0.70
2022-11-21T19:02:59.366Z,0.63
2022-11-21T19:03:59.288Z,0.63
2022-11-21T19:04:59.264Z,0.63
2022-11-21T19:05:59.179Z,0.62
2022-11-21T19:06:59.141Z,0.67
2022-11-21T19:07:59.109Z,0.66
2022-11-21T19:08:59.051Z,0.64
2022-11-21T19:10:27.363Z,0.73
2022-11-21T19:10:59.950Z,0.67
2022-11-21T19:11:58.900Z,0.69
2022-11-21T19:12:58.884Z,0.66
2022-11-21T19:13:58.821Z,0.72
2022-11-21T19:14:58.770Z,0.67
2022-11-21T19:15:58.730Z,0.64
2022-11-21T19:16:58.675Z,0.67
2022-11-21T19:17:58.630Z,0.69
2022-11-21T19:19:33.675Z,0.73
2022-11-21T19:19:59.540Z,0.70
2022-11-21T19:20:58.502Z,0.64
2022-11-21T19:21:58.441Z,0.70
2022-11-21T19:22:58.392Z,0.69
2022-11-21T19:23:58.362Z,0.70
2022-11-21T19:24:58.283Z,0.70
2022-11-21T19:25:58.263Z,0.64
2022-11-21T19:26:58.186Z,0.63
2022-11-21T19:27:58.134Z,0.59
2022-11-21T19:28:58.153Z,0.62
2022-11-21T19:29:58.052Z,0.60
2022-11-21T19:30:58.017Z,0.51
2022-11-21T19:31:57.952Z,0.48
2022-11-21T19:32:57.914Z,0.55
2022-11-21T19:33:57.897Z,0.41
2022-11-21T19:34:57.824Z,0.37
2022-11-21T19:35:57.792Z,0.40
2022-11-21T19:36:57.756Z,0.32
2022-11-21T19:37:57.696Z,0.33
2022-11-21T19:38:57.679Z,0.29
2022-11-21T19:39:57.613Z,0.37
2022-11-21T19:40:57.586Z,0.40
2022-11-21T19:41:57.516Z,0.37
2022-11-21T19:42:57.484Z,0.40
2022-11-21T19:43:57.439Z,0.41
2022-11-21T19:44:57.386Z,0.41
2022-11-21T19:45:58.356Z,0.43
2022-11-21T19:46:57.302Z,0.43
2022-11-21T19:47:57.268Z,0.40
2022-11-21T19:48:57.207Z,0.41
2022-11-21T19:49:57.185Z,0.43
2022-11-21T19:50:58.681Z,0.37
2022-11-21T19:51:57.076Z,0.40
2022-11-21T19:52:57.047Z,0.44
2022-11-21T19:53:57.008Z,0.45
2022-11-21T19:54:56.967Z,0.37
2022-11-21T19:55:56.917Z,0.43
2022-11-21T19:56:56.881Z,0.44
2022-11-21T19:57:56.838Z,0.44
2022-11-21T19:58:56.813Z,0.44
2022-11-21T19:59:56.760Z,0.40
2022-11-21T20:00:56.812Z,0.47
2022-11-21T20:01:56.701Z,0.43
2022-11-21T20:02:56.623Z,0.44
2022-11-21T20:03:56.570Z,0.44
2022-11-21T20:04:56.542Z,0.45
2022-11-21T20:05:56.470Z,0.50
2022-11-21T20:06:56.430Z,0.47
2022-11-21T20:08:01.633Z,0.48
2022-11-21T20:08:57.349Z,0.45
2022-11-21T20:09:56.302Z,0.43
2022-11-21T20:10:57.286Z,0.41
2022-11-21T20:11:56.210Z,0.37
2022-11-21T20:12:56.161Z,0.40
2022-11-21T20:13:56.123Z,0.35
2022-11-21T20:14:56.071Z,0.35
2022-11-21T20:15:56.044Z,0.33
2022-11-21T20:16:55.982Z,0.36
2022-11-21T20:17:55.931Z,0.32
2022-11-21T20:18:55.911Z,0.32
2022-11-21T20:19:55.867Z,0.32
2022-11-21T20:20:55.825Z,0.30
2022-11-21T20:21:55.763Z,0.29
2022-11-21T20:22:55.727Z,0.29
2022-11-21T20:23:55.672Z,0.25
2022-11-21T20:24:55.626Z,0.29
2022-11-21T20:25:55.593Z,0.30
2022-11-21T20:26:55.535Z,0.32
2022-11-21T20:27:55.473Z,0.32
2022-11-21T20:28:55.434Z,0.37
2022-11-21T20:29:55.389Z,0.33
2022-11-21T20:30:55.342Z,0.32
2022-11-21T20:31:55.284Z,0.32
2022-11-21T20:32:55.245Z,0.35
2022-11-21T20:33:55.213Z,0.25
2022-11-21T20:34:55.132Z,0.29
2022-11-21T20:35:55.075Z,0.27
2022-11-21T20:36:55.045Z,0.20
2022-11-21T20:37:55.005Z,0.22
2022-11-21T20:38:54.974Z,0.20
2022-11-21T20:39:54.895Z,0.18
2022-11-21T20:40:54.846Z,0.18
2022-11-21T20:41:54.808Z,0.14
2022-11-21T20:42:54.770Z,0.15
2022-11-21T20:44:44.371Z,0.08
2022-11-21T20:45:54.505Z,0.07
2022-11-21T20:46:09.638Z,0.09
2022-11-21T20:46:55.606Z,0.05
2022-11-21T20:47:54.568Z,-0.01
2022-11-21T20:48:54.525Z,-0.03
2022-11-21T20:49:54.492Z,-0.01
2022-11-21T20:51:42.229Z,-0.04
2022-11-21T20:53:50.392Z,-0.11
2022-11-21T20:54:00.043Z,-0.11
2022-11-21T20:54:55.275Z,-0.11
2022-11-21T20:55:54.248Z,-0.13
2022-11-21T20:56:54.218Z,-0.14
2022-11-21T20:57:54.151Z,-0.17
2022-11-21T20:58:54.109Z,-0.22
2022-11-21T20:59:54.067Z,-0.20
2022-11-21T21:00:54.028Z,-0.22
2022-11-21T21:01:54.069Z,-0.24
2022-11-21T21:02:53.960Z,-0.22
2022-11-21T21:03:53.895Z,-0.21
2022-11-21T21:04:53.876Z,-0.31
2022-11-21T21:05:53.828Z,-0.28
2022-11-21T21:06:53.799Z,-0.35
2022-11-21T21:07:53.804Z,-0.34
2022-11-21T21:08:53.721Z,-0.29
2022-11-21T21:09:53.687Z,-0.39
2022-11-21T21:11:05.643Z,-0.38
2022-11-21T21:11:54.608Z,-0.32
2022-11-21T21:12:53.566Z,-0.35
2022-11-21T21:13:53.531Z,-0.40
2022-11-21T21:14:53.478Z,-0.42
2022-11-21T21:15:53.429Z,-0.39
2022-11-21T21:16:53.410Z,-0.40
2022-11-21T21:17:53.414Z,-0.46
2022-11-21T21:18:53.324Z,-0.39
2022-11-21T21:19:53.282Z,-0.42
2022-11-21T21:21:15.336Z,-0.42
2022-11-21T21:21:54.216Z,-0.45
2022-11-21T21:22:53.180Z,-0.46
2022-11-21T21:23:54.240Z,-0.50
2022-11-21T21:24:53.093Z,-0.43
2022-11-21T21:25:53.073Z,-0.46
2022-11-21T21:26:53.030Z,-0.43
2022-11-21T21:27:52.998Z,-0.46
2022-11-21T21:28:52.990Z,-0.47
2022-11-21T21:29:52.922Z,-0.45
2022-11-21T21:30:52.884Z,-0.45
2022-11-21T21:31:53.192Z,-0.40
2022-11-21T21:32:52.782Z,-0.34
2022-11-21T21:33:52.772Z,-0.42
2022-11-21T21:34:52.704Z,-0.38
2022-11-21T21:35:52.679Z,-0.42
2022-11-21T21:36:52.638Z,-0.39
2022-11-21T21:37:52.584Z,-0.43
2022-11-21T21:38:52.534Z,-0.45
2022-11-21T21:39:52.524Z,-0.42
2022-11-21T21:40:52.475Z,-0.46
2022-11-21T21:41:52.444Z,-0.47
2022-11-21T21:42:52.404Z,-0.52
2022-11-21T21:43:52.381Z,-0.46
2022-11-21T21:44:52.357Z,-0.52
2022-11-21T21:45:52.296Z,-0.47
2022-11-21T21:46:52.256Z,-0.45
2022-11-21T21:47:52.224Z,-0.49
2022-11-21T21:48:52.175Z,-0.52
2022-11-21T21:49:52.135Z,-0.49
2022-11-21T21:50:52.117Z,-0.50
2022-11-21T21:51:52.066Z,-0.45
2022-11-21T21:52:52.016Z,-0.53
2022-11-21T21:53:51.988Z,-0.52
2022-11-21T21:54:51.947Z,-0.50
2022-11-21T21:55:51.928Z,-0.52
2022-11-21T21:56:51.864Z,-0.55
2022-11-21T21:57:52.685Z,-0.53
2022-11-21T21:58:51.799Z,-0.53
2022-11-21T21:59:51.757Z,-0.49
2022-11-21T22:00:51.727Z,-0.55
2022-11-21T22:01:51.803Z,-0.52
2022-11-21T22:02:51.638Z,-0.53
2022-11-21T22:03:51.598Z,-0.49
2022-11-21T22:04:52.218Z,-0.47
2022-11-21T22:05:51.538Z,-0.52
2022-11-21T22:06:51.468Z,-0.55
2022-11-21T22:07:51.485Z,-0.55
2022-11-21T22:08:51.398Z,-0.53
2022-11-21T22:09:51.388Z,-0.57
2022-11-21T22:10:51.338Z,-0.58
2022-11-21T22:11:51.291Z,-0.58
2022-11-21T22:12:51.259Z,-0.58
2022-11-21T22:13:51.210Z,-0.57
2022-11-21T22:14:51.180Z,-0.63
2022-11-21T22:15:51.180Z,-0.61
2022-11-21T22:16:51.120Z,-0.64
2022-11-21T22:17:51.060Z,-0.61
2022-11-21T22:18:51.017Z,-0.66
2022-11-21T22:19:51.000Z,-0.66
2022-11-21T22:20:50.949Z,-0.63
2022-11-21T22:21:50.922Z,-0.60
2022-11-21T22:22:52.428Z,-0.66
2022-11-21T22:24:22.950Z,-0.60
2022-11-21T22:24:51.809Z,-0.67
2022-11-21T22:25:50.768Z,-0.67
2022-11-21T22:26:50.748Z,-0.68
2022-11-21T22:27:50.815Z,-0.70
2022-11-21T22:28:50.669Z,-0.68
2022-11-21T22:29:50.798Z,-0.67
2022-11-21T22:30:50.561Z,-0.70
2022-11-21T22:31:50.547Z,-0.70
2022-11-21T22:32:50.516Z,-0.75
2022-11-21T22:33:50.474Z,-0.73
2022-11-21T22:34:50.435Z,-0.75
2022-11-21T22:35:50.385Z,-0.73
2022-11-21T22:36:50.365Z,-0.73
2022-11-21T22:37:50.322Z,-0.76
2022-11-21T22:38:50.273Z,-0.76
2022-11-21T22:39:50.225Z,-0.78
2022-11-21T22:40:50.183Z,-0.81
2022-11-21T22:41:50.190Z,-0.81
2022-11-21T22:42:50.123Z,-0.75
2022-11-21T22:43:50.104Z,-0.81
2022-11-21T22:44:50.055Z,-0.89
2022-11-21T22:45:50.028Z,-0.82
2022-11-21T22:46:49.994Z,-0.82
2022-11-21T22:47:49.966Z,-0.85
2022-11-21T22:48:49.934Z,-0.82
2022-11-21T22:49:49.939Z,-0.82
2022-11-21T22:50:49.856Z,-0.86
2022-11-21T22:51:49.815Z,-0.85
2022-11-21T22:52:49.825Z,-0.84
2022-11-21T22:53:49.756Z,-0.81
2022-11-21T22:54:49.702Z,-0.90
2022-11-21T22:55:49.686Z,-0.85
2022-11-21T22:56:49.657Z,-0.85
2022-11-21T22:57:49.616Z,-0.85
2022-11-21T22:58:49.633Z,-0.79
2022-11-21T22:59:49.569Z,-0.81
2022-11-21T23:00:49.559Z,-0.90
2022-11-21T23:01:49.545Z,-0.94
2022-11-21T23:02:49.475Z,-0.89
2022-11-21T23:03:49.467Z,-0.94
2022-11-21T23:04:49.418Z,-0.98
2022-11-21T23:05:49.398Z,-0.98
2022-11-21T23:06:49.364Z,-1.00
2022-11-21T23:07:49.407Z,-0.97
2022-11-21T23:08:49.298Z,-1.03
2022-11-21T23:09:49.277Z,-0.97
2022-11-21T23:10:49.237Z,-0.95
2022-11-21T23:11:49.207Z,-1.00
2022-11-21T23:12:49.188Z,-1.03
2022-11-21T23:13:49.155Z,-1.03
2022-11-21T23:14:49.134Z,-1.05
2022-11-21T23:15:49.092Z,-1.07
2022-11-21T23:16:49.056Z,-1.05
2022-11-21T23:17:52.336Z,-1.07
2022-11-21T23:18:49.009Z,-1.10
2022-11-21T23:19:48.992Z,-1.15
2022-11-21T23:20:49.008Z,-1.15
2022-11-21T23:21:48.929Z,-1.16
2022-11-21T23:22:48.903Z,-1.21
2022-11-21T23:23:48.890Z,-1.13
2022-11-21T23:24:48.861Z,-1.21
2022-11-21T23:25:48.850Z,-1.13
2022-11-21T23:26:48.799Z,-1.15
2022-11-21T23:27:48.780Z,-1.22
2022-11-21T23:28:48.757Z,-1.22
2022-11-21T23:29:48.745Z,-1.21
2022-11-21T23:30:48.710Z,-1.23
2022-11-21T23:31:48.684Z,-1.22
2022-11-21T23:32:48.658Z,-1.25
2022-11-21T23:33:48.621Z,-1.22
2022-11-21T23:34:48.601Z,-1.19
2022-11-21T23:35:48.581Z,-1.18
2022-11-21T23:36:48.532Z,-1.15
2022-11-21T23:37:48.518Z,-1.15
2022-11-21T23:38:48.485Z,-1.15
2022-11-21T23:39:48.451Z,-1.18
2022-11-21T23:40:48.434Z,-1.11
2022-11-21T23:41:48.402Z,-1.11
2022-11-21T23:42:48.373Z,-1.04
2022-11-21T23:43:48.342Z,-1.11
2022-11-21T23:44:48.320Z,-1.04
2022-11-21T23:45:48.284Z,-1.04
2022-11-21T23:46:48.262Z,-1.03
2022-11-21T23:47:48.237Z,-1.08
2022-11-21T23:48:48.204Z,-1.01
2022-11-21T23:49:50.187Z,-1.04
2022-11-21T23:50:48.137Z,-1.05
2022-11-21T23:51:48.123Z,-1.13
2022-11-21T23:52:48.106Z,-1.07
2022-11-21T23:53:48.035Z,-1.11
2022-11-21T23:54:48.004Z,-1.08
2022-11-21T23:55:48.003Z,-1.08
2022-11-21T23:56:47.974Z,-1.07
2022-11-21T23:57:47.956Z,-1.04
2022-11-21T23:58:47.914Z,-1.07
2022-11-21T23:59:47.897Z,-1.05
